Terminal Aerodrome Forecast
Issued by NWS

Home | Current Version | Previous Version | Text Only | Print | Product List | Glossary On
Versions: 1 2 3 4 5 6 7 8 9 10 11 12 13 14 15 16 17 18 19 20 21
000
FTUS43 KGRB 252300
TAFAUW
TAF
KAUW 252328Z 2600/2624 VRB03KT P6SM BKN120
     FM260600 13004KT P6SM BKN090 OVC150
     FM261500 18007KT 1SM -SN SCT009 OVC015
     FM262200 15006KT 3SM -SN BKN009 OVC012=

USA.gov is the U.S. government's official web portal to all federal, state and local government web resources and services.